Terminal Aerodrome Forecast
Issued by NWS Cleveland, OH

Home | Current Version | Previous Version | Text Only | Print | Product List | Glossary On
Versions: 1 2 3 4 5 6 7 8 9 10 11 12 13 14 15 16
605
FTUS41 KCLE 302238 AAA
TAFERI
TAF AMD
KERI 302238Z 3023/0118 11010KT P6SM -SHRA BKN025 OVC035
      TEMPO 3023/0102 4SM -SHRA SCT025 BKN035
     FM010200 12014KT P6SM SCT025 BKN035
     FM010600 09007KT 6SM -SHRA OVC025
     FM011100 12007KT P6SM OVC015
     FM011500 09010KT P6SM BKN015 BKN025=

USA.gov is the U.S. government's official web portal to all federal, state and local government web resources and services.